sensor_id;sensor_type;location;lat;lon;timestamp;P1;durP1;ratioP1;P2;durP2;ratioP2
15393;SDS011;7795;47.986;11.868;2023-11-21T00:02:11;2.20;;;1.97;;
15393;SDS011;7795;47.986;11.868;2023-11-21T00:04:39;2.77;;;1.70;;
15393;SDS011;7795;47.986;11.868;2023-11-21T00:07:04;2.80;;;2.00;;
15393;SDS011;7795;47.986;11.868;2023-11-21T00:09:31;4.40;;;1.80;;
15393;SDS011;7795;47.986;11.868;2023-11-21T00:11:56;3.17;;;2.10;;
15393;SDS011;7795;47.986;11.868;2023-11-21T00:14:24;3.57;;;2.53;;
15393;SDS011;7795;47.986;11.868;2023-11-21T00:16:50;4.17;;;1.80;;
15393;SDS011;7795;47.986;11.868;2023-11-21T00:19:15;3.97;;;2.40;;
15393;SDS011;7795;47.986;11.868;2023-11-21T00:21:43;2.67;;;2.10;;
15393;SDS011;7795;47.986;11.868;2023-11-21T00:24:09;3.57;;;2.30;;
15393;SDS011;7795;47.986;11.868;2023-11-21T00:26:38;4.77;;;2.50;;
15393;SDS011;7795;47.986;11.868;2023-11-21T00:29:04;3.43;;;2.47;;
15393;SDS011;7795;47.986;11.868;2023-11-21T00:31:33;7.03;;;3.33;;
15393;SDS011;7795;47.986;11.868;2023-11-21T00:33:58;5.33;;;2.90;;
15393;SDS011;7795;47.986;11.868;2023-11-21T00:36:24;3.47;;;2.90;;
15393;SDS011;7795;47.986;11.868;2023-11-21T00:38:52;3.47;;;2.93;;
15393;SDS011;7795;47.986;11.868;2023-11-21T00:41:18;4.80;;;2.93;;
15393;SDS011;7795;47.986;11.868;2023-11-21T00:43:43;5.07;;;2.90;;
15393;SDS011;7795;47.986;11.868;2023-11-21T00:46:09;3.93;;;2.83;;
15393;SDS011;7795;47.986;11.868;2023-11-21T00:48:35;2.93;;;2.40;;
15393;SDS011;7795;47.986;11.868;2023-11-21T00:51:00;3.53;;;2.40;;
15393;SDS011;7795;47.986;11.868;2023-11-21T00:53:26;3.63;;;2.93;;
15393;SDS011;7795;47.986;11.868;2023-11-21T00:55:53;6.77;;;2.70;;
15393;SDS011;7795;47.986;11.868;2023-11-21T00:58:22;2.90;;;2.10;;
15393;SDS011;7795;47.986;11.868;2023-11-21T01:00:47;4.40;;;2.30;;
15393;SDS011;7795;47.986;11.868;2023-11-21T01:03:13;3.73;;;2.00;;
15393;SDS011;7795;47.986;11.868;2023-11-21T01:05:39;5.60;;;1.77;;
15393;SDS011;7795;47.986;11.868;2023-11-21T01:08:04;4.20;;;1.83;;
15393;SDS011;7795;47.986;11.868;2023-11-21T01:10:30;2.33;;;1.80;;
15393;SDS011;7795;47.986;11.868;2023-11-21T01:12:57;4.27;;;2.50;;
15393;SDS011;7795;47.986;11.868;2023-11-21T01:15:23;4.40;;;1.70;;
15393;SDS011;7795;47.986;11.868;2023-11-21T01:17:51;4.20;;;2.10;;
15393;SDS011;7795;47.986;11.868;2023-11-21T01:20:16;3.00;;;2.20;;
15393;SDS011;7795;47.986;11.868;2023-11-21T01:22:42;2.67;;;1.80;;
15393;SDS011;7795;47.986;11.868;2023-11-21T01:25:08;4.27;;;1.87;;
15393;SDS011;7795;47.986;11.868;2023-11-21T01:27:35;3.93;;;2.10;;
15393;SDS011;7795;47.986;11.868;2023-11-21T01:30:03;3.10;;;2.47;;
15393;SDS011;7795;47.986;11.868;2023-11-21T01:32:32;5.10;;;1.80;;
15393;SDS011;7795;47.986;11.868;2023-11-21T01:34:57;3.13;;;2.00;;
15393;SDS011;7795;47.986;11.868;2023-11-21T01:37:24;1.83;;;1.67;;
15393;SDS011;7795;47.986;11.868;2023-11-21T01:39:52;3.53;;;2.10;;
15393;SDS011;7795;47.986;11.868;2023-11-21T01:42:18;2.73;;;1.90;;
15393;SDS011;7795;47.986;11.868;2023-11-21T01:44:44;4.10;;;2.07;;
15393;SDS011;7795;47.986;11.868;2023-11-21T01:47:11;3.93;;;2.30;;
15393;SDS011;7795;47.986;11.868;2023-11-21T01:49:37;4.10;;;2.07;;
15393;SDS011;7795;47.986;11.868;2023-11-21T01:52:03;5.53;;;2.30;;
15393;SDS011;7795;47.986;11.868;2023-11-21T01:54:30;1.80;;;1.70;;
15393;SDS011;7795;47.986;11.868;2023-11-21T01:56:58;3.27;;;2.23;;
15393;SDS011;7795;47.986;11.868;2023-11-21T01:59:28;2.43;;;2.00;;
15393;SDS011;7795;47.986;11.868;2023-11-21T02:01:59;2.30;;;1.90;;
15393;SDS011;7795;47.986;11.868;2023-11-21T02:04:26;3.67;;;1.93;;
15393;SDS011;7795;47.986;11.868;2023-11-21T02:06:52;2.70;;;1.80;;
15393;SDS011;7795;47.986;11.868;2023-11-21T02:09:22;3.97;;;2.07;;
15393;SDS011;7795;47.986;11.868;2023-11-21T02:11:49;2.87;;;1.67;;
15393;SDS011;7795;47.986;11.868;2023-11-21T02:14:15;5.20;;;2.10;;
15393;SDS011;7795;47.986;11.868;2023-11-21T02:16:41;3.30;;;2.00;;
15393;SDS011;7795;47.986;11.868;2023-11-21T02:19:10;3.93;;;1.93;;
15393;SDS011;7795;47.986;11.868;2023-11-21T02:21:41;3.13;;;2.07;;
15393;SDS011;7795;47.986;11.868;2023-11-21T02:24:11;3.90;;;1.70;;
15393;SDS011;7795;47.986;11.868;2023-11-21T02:26:37;2.80;;;1.70;;
15393;SDS011;7795;47.986;11.868;2023-11-21T02:29:02;2.07;;;1.60;;
15393;SDS011;7795;47.986;11.868;2023-11-21T02:31:29;2.00;;;1.50;;
15393;SDS011;7795;47.986;11.868;2023-11-21T02:33:57;2.87;;;1.80;;
15393;SDS011;7795;47.986;11.868;2023-11-21T02:36:23;2.73;;;1.73;;
15393;SDS011;7795;47.986;11.868;2023-11-21T02:38:49;3.40;;;1.87;;
15393;SDS011;7795;47.986;11.868;2023-11-21T02:41:16;2.97;;;2.10;;
15393;SDS011;7795;47.986;11.868;2023-11-21T02:43:42;2.50;;;1.80;;
15393;SDS011;7795;47.986;11.868;2023-11-21T02:46:08;4.10;;;2.10;;
15393;SDS011;7795;47.986;11.868;2023-11-21T02:48:34;3.80;;;1.73;;
15393;SDS011;7795;47.986;11.868;2023-11-21T02:51:00;3.83;;;1.63;;
15393;SDS011;7795;47.986;11.868;2023-11-21T02:53:26;3.87;;;1.93;;
15393;SDS011;7795;47.986;11.868;2023-11-21T02:55:52;3.03;;;1.77;;
15393;SDS011;7795;47.986;11.868;2023-11-21T02:58:19;1.80;;;1.60;;
15393;SDS011;7795;47.986;11.868;2023-11-21T03:00:44;2.97;;;1.70;;
15393;SDS011;7795;47.986;11.868;2023-11-21T03:03:10;3.47;;;1.60;;
15393;SDS011;7795;47.986;11.868;2023-11-21T03:05:36;2.20;;;2.00;;
15393;SDS011;7795;47.986;11.868;2023-11-21T03:08:02;2.40;;;1.77;;
15393;SDS011;7795;47.986;11.868;2023-11-21T03:10:28;2.77;;;1.80;;
15393;SDS011;7795;47.986;11.868;2023-11-21T03:12:54;3.33;;;2.00;;
15393;SDS011;7795;47.986;11.868;2023-11-21T03:15:21;3.10;;;2.00;;
15393;SDS011;7795;47.986;11.868;2023-11-21T03:17:47;4.30;;;2.33;;
15393;SDS011;7795;47.986;11.868;2023-11-21T03:20:14;3.93;;;1.77;;
15393;SDS011;7795;47.986;11.868;2023-11-21T03:26:03;4.43;;;1.67;;
15393;SDS011;7795;47.986;11.868;2023-11-21T03:28:29;2.40;;;1.90;;
15393;SDS011;7795;47.986;11.868;2023-11-21T03:30:57;3.00;;;1.87;;
15393;SDS011;7795;47.986;11.868;2023-11-21T03:33:22;2.40;;;1.50;;
15393;SDS011;7795;47.986;11.868;2023-11-21T03:35:48;2.03;;;1.50;;
15393;SDS011;7795;47.986;11.868;2023-11-21T03:38:14;2.47;;;1.90;;
15393;SDS011;7795;47.986;11.868;2023-11-21T03:40:41;4.00;;;1.83;;
15393;SDS011;7795;47.986;11.868;2023-11-21T03:43:06;3.73;;;1.83;;
15393;SDS011;7795;47.986;11.868;2023-11-21T03:45:32;2.47;;;1.50;;
15393;SDS011;7795;47.986;11.868;2023-11-21T03:47:59;4.63;;;1.90;;
15393;SDS011;7795;47.986;11.868;2023-11-21T03:50:26;4.80;;;2.00;;
15393;SDS011;7795;47.986;11.868;2023-11-21T03:52:52;4.00;;;2.27;;
15393;SDS011;7795;47.986;11.868;2023-11-21T03:55:18;3.40;;;1.90;;
15393;SDS011;7795;47.986;11.868;2023-11-21T03:57:44;3.33;;;1.20;;
15393;SDS011;7795;47.986;11.868;2023-11-21T04:00:10;1.40;;;1.00;;
15393;SDS011;7795;47.986;11.868;2023-11-21T04:02:36;4.03;;;1.10;;
15393;SDS011;7795;47.986;11.868;2023-11-21T04:05:03;2.60;;;1.00;;
15393;SDS011;7795;47.986;11.868;2023-11-21T04:07:30;1.53;;;1.00;;
15393;SDS011;7795;47.986;11.868;2023-11-21T04:09:55;1.77;;;1.13;;
15393;SDS011;7795;47.986;11.868;2023-11-21T04:12:21;1.37;;;0.80;;
15393;SDS011;7795;47.986;11.868;2023-11-21T04:14:47;1.43;;;1.00;;
15393;SDS011;7795;47.986;11.868;2023-11-21T04:17:13;1.00;;;0.90;;
15393;SDS011;7795;47.986;11.868;2023-11-21T04:19:39;1.90;;;0.90;;
15393;SDS011;7795;47.986;11.868;2023-11-21T04:22:06;1.27;;;0.97;;
15393;SDS011;7795;47.986;11.868;2023-11-21T04:24:31;2.30;;;1.10;;
15393;SDS011;7795;47.986;11.868;2023-11-21T04:26:57;3.23;;;1.27;;
15393;SDS011;7795;47.986;11.868;2023-11-21T04:29:23;2.90;;;0.87;;
15393;SDS011;7795;47.986;11.868;2023-11-21T04:31:48;2.17;;;1.07;;
15393;SDS011;7795;47.986;11.868;2023-11-21T04:34:14;1.63;;;1.00;;
15393;SDS011;7795;47.986;11.868;2023-11-21T04:36:40;2.30;;;0.80;;
15393;SDS011;7795;47.986;11.868;2023-11-21T04:39:07;1.80;;;0.77;;
15393;SDS011;7795;47.986;11.868;2023-11-21T04:41:34;1.97;;;0.97;;
15393;SDS011;7795;47.986;11.868;2023-11-21T04:43:59;3.07;;;1.23;;
15393;SDS011;7795;47.986;11.868;2023-11-21T04:46:25;1.30;;;0.90;;
15393;SDS011;7795;47.986;11.868;2023-11-21T04:48:51;2.63;;;1.00;;
15393;SDS011;7795;47.986;11.868;2023-11-21T04:51:17;2.00;;;1.10;;
15393;SDS011;7795;47.986;11.868;2023-11-21T04:53:43;2.10;;;1.33;;
15393;SDS011;7795;47.986;11.868;2023-11-21T04:56:10;6.00;;;1.17;;
15393;SDS011;7795;47.986;11.868;2023-11-21T04:58:35;2.17;;;1.20;;
15393;SDS011;7795;47.986;11.868;2023-11-21T05:01:02;1.63;;;1.10;;
15393;SDS011;7795;47.986;11.868;2023-11-21T05:03:28;2.33;;;1.30;;
15393;SDS011;7795;47.986;11.868;2023-11-21T05:05:55;2.23;;;0.90;;
15393;SDS011;7795;47.986;11.868;2023-11-21T05:08:21;1.70;;;1.10;;
15393;SDS011;7795;47.986;11.868;2023-11-21T05:10:47;2.10;;;1.10;;
15393;SDS011;7795;47.986;11.868;2023-11-21T05:13:15;2.23;;;1.00;;
15393;SDS011;7795;47.986;11.868;2023-11-21T05:15:42;3.87;;;1.30;;
15393;SDS011;7795;47.986;11.868;2023-11-21T05:18:08;1.87;;;1.20;;
15393;SDS011;7795;47.986;11.868;2023-11-21T05:20:33;2.67;;;1.40;;
15393;SDS011;7795;47.986;11.868;2023-11-21T05:22:59;3.43;;;1.30;;
15393;SDS011;7795;47.986;11.868;2023-11-21T05:25:25;1.90;;;1.00;;
15393;SDS011;7795;47.986;11.868;2023-11-21T05:27:50;1.60;;;0.80;;
15393;SDS011;7795;47.986;11.868;2023-11-21T05:30:18;2.03;;;1.13;;
15393;SDS011;7795;47.986;11.868;2023-11-21T05:32:43;1.97;;;1.30;;
15393;SDS011;7795;47.986;11.868;2023-11-21T05:35:09;5.47;;;1.10;;
15393;SDS011;7795;47.986;11.868;2023-11-21T05:37:40;2.23;;;1.03;;
15393;SDS011;7795;47.986;11.868;2023-11-21T05:40:06;2.90;;;1.07;;
15393;SDS011;7795;47.986;11.868;2023-11-21T05:42:33;2.13;;;1.00;;
15393;SDS011;7795;47.986;11.868;2023-11-21T05:44:59;2.13;;;0.80;;
15393;SDS011;7795;47.986;11.868;2023-11-21T05:47:35;2.70;;;1.17;;
15393;SDS011;7795;47.986;11.868;2023-11-21T05:50:06;2.20;;;1.03;;
15393;SDS011;7795;47.986;11.868;2023-11-21T05:52:35;2.97;;;1.10;;
15393;SDS011;7795;47.986;11.868;2023-11-21T05:55:01;1.30;;;1.00;;
15393;SDS011;7795;47.986;11.868;2023-11-21T05:57:27;1.07;;;0.80;;
15393;SDS011;7795;47.986;11.868;2023-11-21T05:59:52;3.57;;;1.20;;
15393;SDS011;7795;47.986;11.868;2023-11-21T06:02:18;3.13;;;0.80;;
15393;SDS011;7795;47.986;11.868;2023-11-21T06:04:45;2.40;;;1.07;;
15393;SDS011;7795;47.986;11.868;2023-11-21T06:07:11;1.50;;;0.90;;
15393;SDS011;7795;47.986;11.868;2023-11-21T06:09:37;1.50;;;0.83;;
15393;SDS011;7795;47.986;11.868;2023-11-21T06:12:03;2.20;;;0.77;;
15393;SDS011;7795;47.986;11.868;2023-11-21T06:14:29;1.20;;;1.10;;
15393;SDS011;7795;47.986;11.868;2023-11-21T06:16:55;1.07;;;0.70;;
15393;SDS011;7795;47.986;11.868;2023-11-21T06:19:21;1.27;;;0.70;;
15393;SDS011;7795;47.986;11.868;2023-11-21T06:21:48;1.20;;;1.07;;
15393;SDS011;7795;47.986;11.868;2023-11-21T06:24:14;1.57;;;0.90;;
15393;SDS011;7795;47.986;11.868;2023-11-21T06:26:40;1.43;;;0.90;;
15393;SDS011;7795;47.986;11.868;2023-11-21T06:29:06;2.23;;;1.40;;
15393;SDS011;7795;47.986;11.868;2023-11-21T06:31:32;5.10;;;3.10;;
15393;SDS011;7795;47.986;11.868;2023-11-21T06:33:57;3.97;;;2.80;;
15393;SDS011;7795;47.986;11.868;2023-11-21T06:36:24;5.80;;;2.77;;
15393;SDS011;7795;47.986;11.868;2023-11-21T06:38:56;4.80;;;1.60;;
15393;SDS011;7795;47.986;11.868;2023-11-21T06:41:21;3.13;;;2.27;;
15393;SDS011;7795;47.986;11.868;2023-11-21T06:43:47;2.67;;;1.70;;
15393;SDS011;7795;47.986;11.868;2023-11-21T06:46:14;2.33;;;1.80;;
15393;SDS011;7795;47.986;11.868;2023-11-21T06:48:41;3.77;;;2.13;;
15393;SDS011;7795;47.986;11.868;2023-11-21T06:51:07;3.57;;;2.30;;
15393;SDS011;7795;47.986;11.868;2023-11-21T06:53:33;4.70;;;2.37;;
15393;SDS011;7795;47.986;11.868;2023-11-21T06:56:02;5.67;;;3.07;;
15393;SDS011;7795;47.986;11.868;2023-11-21T06:58:28;3.53;;;2.10;;
15393;SDS011;7795;47.986;11.868;2023-11-21T07:00:53;5.93;;;2.93;;
15393;SDS011;7795;47.986;11.868;2023-11-21T07:03:19;6.07;;;2.50;;
15393;SDS011;7795;47.986;11.868;2023-11-21T07:05:45;3.40;;;2.43;;
15393;SDS011;7795;47.986;11.868;2023-11-21T07:08:11;3.97;;;2.70;;
15393;SDS011;7795;47.986;11.868;2023-11-21T07:10:37;3.33;;;1.90;;
15393;SDS011;7795;47.986;11.868;2023-11-21T07:13:04;3.37;;;1.50;;
15393;SDS011;7795;47.986;11.868;2023-11-21T07:15:30;2.37;;;1.30;;
15393;SDS011;7795;47.986;11.868;2023-11-21T07:17:56;2.37;;;1.30;;
15393;SDS011;7795;47.986;11.868;2023-11-21T07:20:22;2.37;;;1.60;;
15393;SDS011;7795;47.986;11.868;2023-11-21T07:22:48;1.07;;;0.97;;
15393;SDS011;7795;47.986;11.868;2023-11-21T07:25:14;1.97;;;1.40;;
15393;SDS011;7795;47.986;11.868;2023-11-21T07:27:39;4.33;;;3.53;;
15393;SDS011;7795;47.986;11.868;2023-11-21T07:30:07;3.40;;;3.00;;
15393;SDS011;7795;47.986;11.868;2023-11-21T07:32:35;7.00;;;4.27;;
15393;SDS011;7795;47.986;11.868;2023-11-21T07:35:00;6.10;;;4.77;;
15393;SDS011;7795;47.986;11.868;2023-11-21T07:37:26;9.03;;;4.60;;
15393;SDS011;7795;47.986;11.868;2023-11-21T07:39:53;5.33;;;4.00;;
15393;SDS011;7795;47.986;11.868;2023-11-21T07:42:21;5.63;;;2.77;;
15393;SDS011;7795;47.986;11.868;2023-11-21T07:44:47;3.83;;;2.07;;
15393;SDS011;7795;47.986;11.868;2023-11-21T07:47:14;4.43;;;2.40;;
15393;SDS011;7795;47.986;11.868;2023-11-21T07:49:40;4.07;;;2.23;;
15393;SDS011;7795;47.986;11.868;2023-11-21T07:52:07;3.07;;;1.90;;
15393;SDS011;7795;47.986;11.868;2023-11-21T07:54:33;3.47;;;2.13;;
15393;SDS011;7795;47.986;11.868;2023-11-21T07:57:00;3.03;;;2.23;;
15393;SDS011;7795;47.986;11.868;2023-11-21T07:59:26;2.10;;;1.90;;
15393;SDS011;7795;47.986;11.868;2023-11-21T08:01:52;2.17;;;1.97;;
15393;SDS011;7795;47.986;11.868;2023-11-21T08:04:19;3.90;;;2.03;;
15393;SDS011;7795;47.986;11.868;2023-11-21T08:06:45;3.30;;;2.80;;
15393;SDS011;7795;47.986;11.868;2023-11-21T08:09:10;3.50;;;2.13;;
15393;SDS011;7795;47.986;11.868;2023-11-21T08:11:37;3.30;;;2.10;;
15393;SDS011;7795;47.986;11.868;2023-11-21T08:14:03;2.10;;;1.60;;
15393;SDS011;7795;47.986;11.868;2023-11-21T08:16:30;1.73;;;1.30;;
15393;SDS011;7795;47.986;11.868;2023-11-21T08:18:55;1.93;;;1.20;;
15393;SDS011;7795;47.986;11.868;2023-11-21T08:21:22;3.23;;;1.20;;
15393;SDS011;7795;47.986;11.868;2023-11-21T08:23:52;3.60;;;1.40;;
15393;SDS011;7795;47.986;11.868;2023-11-21T08:26:19;1.60;;;1.20;;
15393;SDS011;7795;47.986;11.868;2023-11-21T08:28:44;3.53;;;1.70;;
15393;SDS011;7795;47.986;11.868;2023-11-21T08:31:10;2.93;;;1.47;;
15393;SDS011;7795;47.986;11.868;2023-11-21T08:33:36;1.83;;;1.60;;
15393;SDS011;7795;47.986;11.868;2023-11-21T08:36:06;2.43;;;1.37;;
15393;SDS011;7795;47.986;11.868;2023-11-21T08:38:33;1.57;;;1.40;;
15393;SDS011;7795;47.986;11.868;2023-11-21T08:41:02;3.30;;;1.80;;
15393;SDS011;7795;47.986;11.868;2023-11-21T08:43:32;3.83;;;1.80;;
15393;SDS011;7795;47.986;11.868;2023-11-21T08:45:59;3.53;;;2.00;;
15393;SDS011;7795;47.986;11.868;2023-11-21T08:48:25;2.93;;;1.40;;
15393;SDS011;7795;47.986;11.868;2023-11-21T08:50:50;3.77;;;1.70;;
15393;SDS011;7795;47.986;11.868;2023-11-21T08:53:16;3.63;;;1.30;;
15393;SDS011;7795;47.986;11.868;2023-11-21T08:55:43;3.90;;;1.80;;
15393;SDS011;7795;47.986;11.868;2023-11-21T08:58:09;4.43;;;2.03;;
15393;SDS011;7795;47.986;11.868;2023-11-21T09:00:34;3.60;;;1.90;;
15393;SDS011;7795;47.986;11.868;2023-11-21T09:03:01;4.30;;;2.13;;
15393;SDS011;7795;47.986;11.868;2023-11-21T09:05:28;5.93;;;2.00;;
15393;SDS011;7795;47.986;11.868;2023-11-21T09:07:55;4.43;;;2.33;;
15393;SDS011;7795;47.986;11.868;2023-11-21T09:10:20;2.40;;;1.70;;
15393;SDS011;7795;47.986;11.868;2023-11-21T09:12:47;2.47;;;1.20;;
15393;SDS011;7795;47.986;11.868;2023-11-21T09:15:13;2.60;;;1.83;;
15393;SDS011;7795;47.986;11.868;2023-11-21T09:17:40;3.67;;;2.27;;
15393;SDS011;7795;47.986;11.868;2023-11-21T09:20:06;4.03;;;2.53;;
15393;SDS011;7795;47.986;11.868;2023-11-21T09:22:35;3.07;;;2.07;;
15393;SDS011;7795;47.986;11.868;2023-11-21T09:25:01;2.97;;;1.67;;
15393;SDS011;7795;47.986;11.868;2023-11-21T09:27:30;2.87;;;2.10;;
15393;SDS011;7795;47.986;11.868;2023-11-21T09:29:57;2.20;;;1.30;;
15393;SDS011;7795;47.986;11.868;2023-11-21T09:32:23;1.20;;;1.10;;
15393;SDS011;7795;47.986;11.868;2023-11-21T09:34:49;1.43;;;0.80;;
15393;SDS011;7795;47.986;11.868;2023-11-21T09:37:15;1.30;;;0.90;;
15393;SDS011;7795;47.986;11.868;2023-11-21T09:39:41;1.00;;;0.70;;
15393;SDS011;7795;47.986;11.868;2023-11-21T09:42:08;1.33;;;0.83;;
15393;SDS011;7795;47.986;11.868;2023-11-21T09:44:46;0.97;;;0.77;;
15393;SDS011;7795;47.986;11.868;2023-11-21T09:47:18;1.83;;;1.00;;
15393;SDS011;7795;47.986;11.868;2023-11-21T09:49:46;1.27;;;0.90;;
15393;SDS011;7795;47.986;11.868;2023-11-21T09:52:15;2.03;;;1.40;;
15393;SDS011;7795;47.986;11.868;2023-11-21T09:54:47;1.60;;;0.90;;
15393;SDS011;7795;47.986;11.868;2023-11-21T09:57:15;1.37;;;0.93;;
15393;SDS011;7795;47.986;11.868;2023-11-21T09:59:41;1.13;;;1.03;;
15393;SDS011;7795;47.986;11.868;2023-11-21T10:02:08;1.13;;;0.93;;
15393;SDS011;7795;47.986;11.868;2023-11-21T10:04:39;1.37;;;0.83;;
15393;SDS011;7795;47.986;11.868;2023-11-21T10:07:05;1.53;;;0.77;;
15393;SDS011;7795;47.986;11.868;2023-11-21T10:09:34;1.50;;;1.23;;
15393;SDS011;7795;47.986;11.868;2023-11-21T10:12:00;1.67;;;1.10;;
15393;SDS011;7795;47.986;11.868;2023-11-21T10:14:28;1.03;;;0.93;;
15393;SDS011;7795;47.986;11.868;2023-11-21T10:16:54;1.60;;;0.80;;
15393;SDS011;7795;47.986;11.868;2023-11-21T10:19:21;1.47;;;0.90;;
15393;SDS011;7795;47.986;11.868;2023-11-21T10:21:50;2.10;;;0.87;;
15393;SDS011;7795;47.986;11.868;2023-11-21T10:24:16;1.47;;;0.87;;
15393;SDS011;7795;47.986;11.868;2023-11-21T10:26:43;1.67;;;0.90;;
15393;SDS011;7795;47.986;11.868;2023-11-21T10:29:10;2.50;;;1.00;;
15393;SDS011;7795;47.986;11.868;2023-11-21T10:31:41;0.90;;;0.90;;
15393;SDS011;7795;47.986;11.868;2023-11-21T10:34:12;1.27;;;0.87;;
15393;SDS011;7795;47.986;11.868;2023-11-21T10:36:39;1.87;;;0.90;;
15393;SDS011;7795;47.986;11.868;2023-11-21T10:39:06;0.60;;;0.60;;
15393;SDS011;7795;47.986;11.868;2023-11-21T10:41:31;2.33;;;0.97;;
15393;SDS011;7795;47.986;11.868;2023-11-21T10:43:57;1.80;;;1.00;;
15393;SDS011;7795;47.986;11.868;2023-11-21T10:46:23;2.40;;;0.80;;
15393;SDS011;7795;47.986;11.868;2023-11-21T10:48:54;2.10;;;1.17;;
15393;SDS011;7795;47.986;11.868;2023-11-21T10:51:21;2.13;;;0.90;;
15393;SDS011;7795;47.986;11.868;2023-11-21T10:53:47;1.00;;;1.00;;
15393;SDS011;7795;47.986;11.868;2023-11-21T10:56:17;2.87;;;1.43;;
15393;SDS011;7795;47.986;11.868;2023-11-21T10:58:44;2.90;;;2.03;;
15393;SDS011;7795;47.986;11.868;2023-11-21T11:01:11;2.33;;;1.80;;
15393;SDS011;7795;47.986;11.868;2023-11-21T11:03:39;3.80;;;2.37;;
15393;SDS011;7795;47.986;11.868;2023-11-21T11:06:06;5.90;;;4.07;;
15393;SDS011;7795;47.986;11.868;2023-11-21T11:08:38;3.67;;;2.50;;
15393;SDS011;7795;47.986;11.868;2023-11-21T11:11:05;3.03;;;1.80;;
15393;SDS011;7795;47.986;11.868;2023-11-21T11:13:32;3.63;;;1.60;;
15393;SDS011;7795;47.986;11.868;2023-11-21T11:15:59;1.70;;;1.20;;
15393;SDS011;7795;47.986;11.868;2023-11-21T11:18:26;1.50;;;1.20;;
15393;SDS011;7795;47.986;11.868;2023-11-21T11:20:53;2.03;;;1.00;;
15393;SDS011;7795;47.986;11.868;2023-11-21T11:23:32;1.50;;;1.13;;
15393;SDS011;7795;47.986;11.868;2023-11-21T11:26:12;1.33;;;1.00;;
15393;SDS011;7795;47.986;11.868;2023-11-21T11:28:51;1.87;;;0.90;;
15393;SDS011;7795;47.986;11.868;2023-11-21T11:31:25;1.47;;;1.10;;
15393;SDS011;7795;47.986;11.868;2023-11-21T11:34:15;2.13;;;1.50;;
15393;SDS011;7795;47.986;11.868;2023-11-21T11:36:48;1.67;;;1.30;;
15393;SDS011;7795;47.986;11.868;2023-11-21T11:39:27;7.67;;;1.60;;
15393;SDS011;7795;47.986;11.868;2023-11-21T11:41:56;2.17;;;1.60;;
15393;SDS011;7795;47.986;11.868;2023-11-21T11:47:20;1.40;;;1.10;;
15393;SDS011;7795;47.986;11.868;2023-11-21T11:52:32;9.40;;;2.10;;
15393;SDS011;7795;47.986;11.868;2023-11-21T11:54:59;1.97;;;1.20;;
15393;SDS011;7795;47.986;11.868;2023-11-21T11:57:25;2.93;;;1.40;;
15393;SDS011;7795;47.986;11.868;2023-11-21T12:00:08;3.57;;;1.43;;
15393;SDS011;7795;47.986;11.868;2023-11-21T12:02:44;3.93;;;1.17;;
15393;SDS011;7795;47.986;11.868;2023-11-21T12:05:10;1.47;;;0.90;;
15393;SDS011;7795;47.986;11.868;2023-11-21T12:07:45;2.07;;;1.10;;
15393;SDS011;7795;47.986;11.868;2023-11-21T12:10:12;2.00;;;1.17;;
15393;SDS011;7795;47.986;11.868;2023-11-21T12:12:42;2.00;;;1.30;;
15393;SDS011;7795;47.986;11.868;2023-11-21T12:15:10;1.27;;;1.10;;
15393;SDS011;7795;47.986;11.868;2023-11-21T12:17:37;1.60;;;1.43;;
15393;SDS011;7795;47.986;11.868;2023-11-21T12:20:03;5.63;;;3.83;;
15393;SDS011;7795;47.986;11.868;2023-11-21T12:22:39;9.73;;;7.77;;
15393;SDS011;7795;47.986;11.868;2023-11-21T12:25:07;9.90;;;8.33;;
15393;SDS011;7795;47.986;11.868;2023-11-21T12:27:33;6.67;;;5.33;;
15393;SDS011;7795;47.986;11.868;2023-11-21T12:29:58;4.53;;;3.17;;
15393;SDS011;7795;47.986;11.868;2023-11-21T12:32:25;1.87;;;1.77;;
15393;SDS011;7795;47.986;11.868;2023-11-21T12:34:51;2.43;;;1.40;;
15393;SDS011;7795;47.986;11.868;2023-11-21T12:37:17;3.80;;;1.67;;
15393;SDS011;7795;47.986;11.868;2023-11-21T12:39:43;2.07;;;1.33;;
15393;SDS011;7795;47.986;11.868;2023-11-21T12:42:09;2.07;;;1.40;;
15393;SDS011;7795;47.986;11.868;2023-11-21T12:44:35;1.93;;;1.30;;
15393;SDS011;7795;47.986;11.868;2023-11-21T12:47:02;2.03;;;0.93;;
15393;SDS011;7795;47.986;11.868;2023-11-21T12:49:30;5.10;;;1.60;;
15393;SDS011;7795;47.986;11.868;2023-11-21T12:51:57;4.10;;;1.10;;
15393;SDS011;7795;47.986;11.868;2023-11-21T12:54:23;4.03;;;1.33;;
15393;SDS011;7795;47.986;11.868;2023-11-21T12:56:49;1.93;;;1.23;;
15393;SDS011;7795;47.986;11.868;2023-11-21T12:59:15;2.67;;;1.93;;
15393;SDS011;7795;47.986;11.868;2023-11-21T13:01:43;2.83;;;1.90;;
15393;SDS011;7795;47.986;11.868;2023-11-21T13:04:08;5.40;;;4.00;;
15393;SDS011;7795;47.986;11.868;2023-11-21T13:06:37;2.30;;;1.90;;
15393;SDS011;7795;47.986;11.868;2023-11-21T13:09:06;1.20;;;1.10;;
15393;SDS011;7795;47.986;11.868;2023-11-21T13:11:34;1.73;;;0.90;;
15393;SDS011;7795;47.986;11.868;2023-11-21T13:13:59;1.50;;;1.00;;
15393;SDS011;7795;47.986;11.868;2023-11-21T13:16:25;2.03;;;0.90;;
15393;SDS011;7795;47.986;11.868;2023-11-21T13:18:51;1.17;;;0.90;;
15393;SDS011;7795;47.986;11.868;2023-11-21T13:21:17;4.53;;;1.40;;
15393;SDS011;7795;47.986;11.868;2023-11-21T13:23:44;2.30;;;1.00;;
15393;SDS011;7795;47.986;11.868;2023-11-21T13:26:11;1.87;;;1.30;;
15393;SDS011;7795;47.986;11.868;2023-11-21T13:28:37;1.73;;;1.40;;
15393;SDS011;7795;47.986;11.868;2023-11-21T13:31:05;1.33;;;0.87;;
15393;SDS011;7795;47.986;11.868;2023-11-21T13:33:35;1.73;;;1.00;;
15393;SDS011;7795;47.986;11.868;2023-11-21T13:36:03;1.40;;;1.30;;
15393;SDS011;7795;47.986;11.868;2023-11-21T13:38:32;1.47;;;1.17;;
15393;SDS011;7795;47.986;11.868;2023-11-21T13:41:02;2.80;;;1.60;;
15393;SDS011;7795;47.986;11.868;2023-11-21T13:43:28;2.70;;;1.80;;
15393;SDS011;7795;47.986;11.868;2023-11-21T13:45:54;1.93;;;1.63;;
15393;SDS011;7795;47.986;11.868;2023-11-21T13:48:29;4.10;;;1.40;;
15393;SDS011;7795;47.986;11.868;2023-11-21T13:51:05;1.70;;;1.50;;
15393;SDS011;7795;47.986;11.868;2023-11-21T13:53:54;3.17;;;1.77;;
15393;SDS011;7795;47.986;11.868;2023-11-21T13:56:21;1.83;;;1.40;;
15393;SDS011;7795;47.986;11.868;2023-11-21T13:58:49;3.43;;;1.93;;
15393;SDS011;7795;47.986;11.868;2023-11-21T14:01:17;2.47;;;1.60;;
15393;SDS011;7795;47.986;11.868;2023-11-21T14:03:55;3.10;;;1.73;;
15393;SDS011;7795;47.986;11.868;2023-11-21T14:06:39;1.03;;;0.90;;
15393;SDS011;7795;47.986;11.868;2023-11-21T14:09:13;2.40;;;1.30;;
15393;SDS011;7795;47.986;11.868;2023-11-21T14:11:48;2.00;;;1.27;;
15393;SDS011;7795;47.986;11.868;2023-11-21T14:14:16;1.90;;;1.57;;
15393;SDS011;7795;47.986;11.868;2023-11-21T14:16:43;3.23;;;2.00;;
15393;SDS011;7795;47.986;11.868;2023-11-21T14:19:09;2.10;;;1.80;;
15393;SDS011;7795;47.986;11.868;2023-11-21T14:21:41;3.13;;;2.00;;
15393;SDS011;7795;47.986;11.868;2023-11-21T14:24:08;3.77;;;1.70;;
15393;SDS011;7795;47.986;11.868;2023-11-21T14:26:34;2.07;;;1.77;;
15393;SDS011;7795;47.986;11.868;2023-11-21T14:29:01;1.77;;;1.40;;
15393;SDS011;7795;47.986;11.868;2023-11-21T14:31:28;1.40;;;1.30;;
15393;SDS011;7795;47.986;11.868;2023-11-21T14:33:55;1.23;;;1.10;;
15393;SDS011;7795;47.986;11.868;2023-11-21T14:36:22;0.93;;;0.70;;
15393;SDS011;7795;47.986;11.868;2023-11-21T14:38:49;0.80;;;0.80;;
15393;SDS011;7795;47.986;11.868;2023-11-21T14:41:14;0.70;;;0.70;;
15393;SDS011;7795;47.986;11.868;2023-11-21T14:43:40;1.37;;;1.07;;
15393;SDS011;7795;47.986;11.868;2023-11-21T14:46:09;1.47;;;0.80;;
15393;SDS011;7795;47.986;11.868;2023-11-21T14:48:39;1.73;;;1.00;;
15393;SDS011;7795;47.986;11.868;2023-11-21T14:51:08;2.47;;;1.23;;
15393;SDS011;7795;47.986;11.868;2023-11-21T14:53:52;1.93;;;1.83;;
15393;SDS011;7795;47.986;11.868;2023-11-21T14:56:19;2.80;;;2.00;;
15393;SDS011;7795;47.986;11.868;2023-11-21T14:58:51;2.50;;;1.50;;